createdAt,value
2018-09-08T00:00:05.655Z,993.78
2018-09-08T00:01:05.884Z,993.81
2018-09-08T00:02:06.117Z,993.82
2018-09-08T00:03:06.338Z,993.83
2018-09-08T00:04:06.565Z,993.82
2018-09-08T00:05:06.796Z,993.85
2018-09-08T00:06:07.021Z,993.83
2018-09-08T00:07:07.253Z,993.82
2018-09-08T00:08:07.479Z,993.82
2018-09-08T00:09:07.710Z,993.85
2018-09-08T00:10:07.936Z,993.84
2018-09-08T00:11:08.158Z,993.84
2018-09-08T00:12:08.385Z,993.81
2018-09-08T00:13:08.615Z,993.84
2018-09-08T00:14:08.849Z,993.86
2018-09-08T00:15:09.076Z,993.86
2018-09-08T00:16:09.317Z,993.86
2018-09-08T00:17:09.535Z,993.84
2018-09-08T00:18:09.762Z,993.84
2018-09-08T00:19:10.008Z,993.87
2018-09-08T00:20:10.218Z,993.89
2018-09-08T00:21:10.444Z,993.87
2018-09-08T00:22:10.673Z,993.87
2018-09-08T00:23:10.897Z,993.87
2018-09-08T00:24:11.125Z,993.85
2018-09-08T00:25:11.351Z,993.85
2018-09-08T00:26:11.577Z,993.85
2018-09-08T00:27:11.806Z,993.85
2018-09-08T00:28:12.031Z,993.87
2018-09-08T00:29:12.259Z,993.88
2018-09-08T00:30:12.485Z,993.89
2018-09-08T00:31:12.714Z,993.93
2018-09-08T00:32:12.939Z,993.96
2018-09-08T00:33:13.165Z,993.99
2018-09-08T00:34:13.390Z,993.94
2018-09-08T00:35:13.624Z,993.99
2018-09-08T00:36:13.839Z,993.98
2018-09-08T00:37:14.079Z,993.96
2018-09-08T00:38:14.301Z,993.99
2018-09-08T00:39:14.532Z,993.96
2018-09-08T00:40:14.763Z,993.97
2018-09-08T00:41:14.989Z,993.96
2018-09-08T00:42:15.213Z,993.97
2018-09-08T00:43:15.440Z,993.97
2018-09-08T00:44:15.669Z,994.01
2018-09-08T00:45:15.897Z,993.98
2018-09-08T00:46:16.120Z,993.98
2018-09-08T00:47:16.347Z,993.97
2018-09-08T00:48:16.582Z,994.03
2018-09-08T00:49:16.803Z,993.97
2018-09-08T00:50:17.032Z,993.99
2018-09-08T00:51:17.257Z,993.96
2018-09-08T00:52:17.484Z,993.97
2018-09-08T00:53:17.712Z,993.97
2018-09-08T00:54:17.940Z,993.96
2018-09-08T00:55:18.163Z,993.97
2018-09-08T00:56:18.391Z,993.97
2018-09-08T00:57:18.619Z,993.99
2018-09-08T00:58:18.850Z,993.98
2018-09-08T00:59:19.072Z,993.96
2018-09-08T01:00:19.300Z,993.97
2018-09-08T01:01:19.525Z,993.97
2018-09-08T01:02:19.753Z,993.98
2018-09-08T01:03:19.978Z,993.99
2018-09-08T01:04:20.206Z,994.00
2018-09-08T01:05:20.434Z,993.99
2018-09-08T01:06:20.661Z,994.01
2018-09-08T01:07:20.888Z,993.98
2018-09-08T01:08:21.114Z,993.97
2018-09-08T01:09:21.340Z,993.99
2018-09-08T01:10:21.570Z,993.96
2018-09-08T01:11:21.795Z,993.97
2018-09-08T01:12:22.023Z,994.00
2018-09-08T01:13:22.249Z,993.97
2018-09-08T01:14:22.479Z,994.00
2018-09-08T01:15:22.705Z,994.03
2018-09-08T01:16:22.931Z,994.03
2018-09-08T01:17:23.162Z,994.06
2018-09-08T01:18:23.385Z,994.07
2018-09-08T01:19:23.612Z,994.07
2018-09-08T01:20:23.837Z,994.04
2018-09-08T01:21:24.071Z,994.07
2018-09-08T01:22:24.302Z,994.09
2018-09-08T01:23:24.523Z,994.07
2018-09-08T01:24:24.753Z,994.09
2018-09-08T01:25:24.979Z,994.08
2018-09-08T01:26:25.207Z,994.09
2018-09-08T01:27:25.433Z,994.08
2018-09-08T01:28:25.656Z,994.11
2018-09-08T01:29:25.881Z,994.11
2018-09-08T01:30:26.108Z,994.14
2018-09-08T01:31:26.335Z,994.11
2018-09-08T01:32:26.563Z,994.13
2018-09-08T01:33:26.793Z,994.13
2018-09-08T01:34:27.019Z,994.13
2018-09-08T01:35:27.244Z,994.14
2018-09-08T01:36:27.474Z,994.12
2018-09-08T01:37:27.702Z,994.11
2018-09-08T01:38:27.931Z,994.11
2018-09-08T01:39:28.153Z,994.11
2018-09-08T01:40:28.380Z,994.14
2018-09-08T01:41:28.607Z,994.17
2018-09-08T01:42:28.831Z,994.16
2018-09-08T01:43:29.057Z,994.16
2018-09-08T01:44:29.280Z,994.17
2018-09-08T01:45:29.508Z,994.23
2018-09-08T01:46:29.735Z,994.22
2018-09-08T01:47:29.961Z,994.24
2018-09-08T01:48:30.187Z,994.23
2018-09-08T01:49:30.412Z,994.23
2018-09-08T01:50:30.653Z,994.24
2018-09-08T01:51:30.878Z,994.27
2018-09-08T01:52:31.105Z,994.24
2018-09-08T01:53:31.332Z,994.22
2018-09-08T01:54:31.560Z,994.23
2018-09-08T01:55:31.785Z,994.19
2018-09-08T01:56:32.013Z,994.19
2018-09-08T01:57:32.278Z,994.19
2018-09-08T01:58:32.465Z,994.17
2018-09-08T01:59:32.688Z,994.15
2018-09-08T02:00:32.921Z,994.19
2018-09-08T02:01:33.143Z,994.22
2018-09-08T02:02:33.372Z,994.18
2018-09-08T02:03:33.596Z,994.20
2018-09-08T02:04:33.825Z,994.18
2018-09-08T02:05:34.051Z,994.23
2018-09-08T02:06:34.279Z,994.20
2018-09-08T02:07:34.505Z,994.21
2018-09-08T02:08:34.734Z,994.24
2018-09-08T02:09:34.953Z,994.21
2018-09-08T02:10:35.180Z,994.24
2018-09-08T02:11:35.412Z,994.23
2018-09-08T02:12:35.633Z,994.26
2018-09-08T02:13:35.858Z,994.24
2018-09-08T02:14:36.087Z,994.25
2018-09-08T02:15:36.316Z,994.24
2018-09-08T02:16:36.537Z,994.22
2018-09-08T02:17:36.763Z,994.21
2018-09-08T02:18:37.004Z,994.26
2018-09-08T02:19:37.230Z,994.27
2018-09-08T02:20:37.469Z,994.26
2018-09-08T02:21:37.681Z,994.27
2018-09-08T02:22:37.907Z,994.25
2018-09-08T02:23:38.130Z,994.27
2018-09-08T02:24:38.361Z,994.26
2018-09-08T02:25:38.587Z,994.28
2018-09-08T02:26:38.810Z,994.26
2018-09-08T02:27:39.039Z,994.26
2018-09-08T02:28:39.265Z,994.23
2018-09-08T02:29:39.494Z,994.22
2018-09-08T02:30:39.714Z,994.25
2018-09-08T02:31:39.941Z,994.19
2018-09-08T02:32:40.169Z,994.19
2018-09-08T02:33:40.396Z,994.17
2018-09-08T02:34:40.623Z,994.17
2018-09-08T02:35:40.857Z,994.20
2018-09-08T02:36:41.081Z,994.13
2018-09-08T02:37:41.302Z,994.19
2018-09-08T02:38:41.527Z,994.20
2018-09-08T02:39:41.753Z,994.18
2018-09-08T02:40:41.981Z,994.15
2018-09-08T02:41:42.208Z,994.19
2018-09-08T02:42:42.435Z,994.17
2018-09-08T02:43:42.660Z,994.16
2018-09-08T02:44:42.887Z,994.17
2018-09-08T02:45:43.111Z,994.16
2018-09-08T02:46:43.334Z,994.17
2018-09-08T02:47:43.561Z,994.18
2018-09-08T02:48:43.790Z,994.18
2018-09-08T02:49:44.016Z,994.19
2018-09-08T02:50:44.243Z,994.17
2018-09-08T02:51:44.469Z,994.19
2018-09-08T02:52:44.695Z,994.20
2018-09-08T02:53:44.921Z,994.20
2018-09-08T02:54:45.146Z,994.19
2018-09-08T02:55:45.373Z,994.21
2018-09-08T02:56:45.600Z,994.24
2018-09-08T02:57:45.826Z,994.27
2018-09-08T02:58:46.053Z,994.26
2018-09-08T02:59:46.280Z,994.24
2018-09-08T03:00:46.518Z,994.26
2018-09-08T03:01:46.721Z,994.26
2018-09-08T03:02:46.954Z,994.25
2018-09-08T03:03:47.181Z,994.25
2018-09-08T03:04:47.407Z,994.31
2018-09-08T03:05:47.634Z,994.26
2018-09-08T03:06:47.857Z,994.26
2018-09-08T03:07:48.086Z,994.26
2018-09-08T03:08:48.310Z,994.28
2018-09-08T03:09:48.538Z,994.26
2018-09-08T03:10:48.764Z,994.26
2018-09-08T03:11:48.993Z,994.24
2018-09-08T03:12:49.216Z,994.25
2018-09-08T03:13:49.442Z,994.23
2018-09-08T03:14:49.668Z,994.23
2018-09-08T03:15:49.898Z,994.31
2018-09-08T03:16:50.125Z,994.30
2018-09-08T03:17:50.340Z,994.33
2018-09-08T03:18:50.567Z,994.38
2018-09-08T03:19:50.794Z,994.37
2018-09-08T03:20:51.020Z,994.36
2018-09-08T03:21:51.246Z,994.38
2018-09-08T03:22:51.472Z,994.36
2018-09-08T03:23:51.693Z,994.40
2018-09-08T03:24:51.918Z,994.43
2018-09-08T03:25:52.154Z,994.46
2018-09-08T03:26:52.371Z,994.45
2018-09-08T03:27:52.601Z,994.50
2018-09-08T03:28:52.824Z,994.51
2018-09-08T03:29:53.051Z,994.52
2018-09-08T03:30:53.276Z,994.52
2018-09-08T03:31:53.504Z,994.55
2018-09-08T03:32:53.731Z,994.51
2018-09-08T03:33:53.959Z,994.53
2018-09-08T03:34:54.186Z,994.51
2018-09-08T03:35:54.412Z,994.49
2018-09-08T03:36:54.639Z,994.52
2018-09-08T03:37:54.869Z,994.52
2018-09-08T03:38:55.091Z,994.53
2018-09-08T03:39:55.318Z,994.57
2018-09-08T03:40:55.537Z,994.54
2018-09-08T03:41:55.755Z,994.55
2018-09-08T03:42:55.987Z,994.58
2018-09-08T03:43:56.229Z,994.57
2018-09-08T03:44:56.464Z,994.52
2018-09-08T03:45:56.689Z,994.56
2018-09-08T03:46:56.917Z,994.55
2018-09-08T03:47:57.143Z,994.51
2018-09-08T03:48:57.367Z,994.52
2018-09-08T03:49:57.597Z,994.50
2018-09-08T03:50:57.823Z,994.48
2018-09-08T03:51:58.049Z,994.51
2018-09-08T03:52:58.277Z,994.51
2018-09-08T03:53:58.504Z,994.53
2018-09-08T03:54:58.730Z,994.50
2018-09-08T03:55:58.962Z,994.49
2018-09-08T03:56:59.177Z,994.48
2018-09-08T03:57:59.407Z,994.47
2018-09-08T03:58:59.677Z,994.49
2018-09-08T03:59:59.866Z,994.52
2018-09-08T04:01:00.087Z,994.51
2018-09-08T04:02:00.314Z,994.54
2018-09-08T04:03:00.541Z,994.54
2018-09-08T04:04:00.771Z,994.56
2018-09-08T04:05:00.993Z,994.58
2018-09-08T04:06:01.229Z,994.58
2018-09-08T04:07:01.454Z,994.61
2018-09-08T04:08:01.678Z,994.60
2018-09-08T04:09:01.902Z,994.67
2018-09-08T04:10:02.127Z,994.65
2018-09-08T04:11:02.353Z,994.67
2018-09-08T04:12:02.579Z,994.68
2018-09-08T04:13:02.808Z,994.73
2018-09-08T04:14:03.032Z,994.73
2018-09-08T04:15:03.258Z,994.79
2018-09-08T04:16:03.485Z,994.78
2018-09-08T04:17:03.713Z,994.77
2018-09-08T04:18:03.952Z,994.79
2018-09-08T04:19:04.163Z,994.80
2018-09-08T04:20:04.392Z,994.78
2018-09-08T04:21:04.615Z,994.83
2018-09-08T04:22:04.845Z,994.88
2018-09-08T04:23:05.069Z,994.85
2018-09-08T04:24:05.340Z,994.87
2018-09-08T04:25:05.527Z,994.90
2018-09-08T04:26:05.751Z,994.92
2018-09-08T04:27:05.973Z,994.96
2018-09-08T04:28:06.201Z,994.96
2018-09-08T04:29:06.427Z,994.94
2018-09-08T04:30:06.656Z,994.96
2018-09-08T04:31:06.884Z,994.99
2018-09-08T04:32:07.110Z,994.99
2018-09-08T04:33:07.336Z,994.98
2018-09-08T04:34:07.573Z,995.02
2018-09-08T04:35:07.785Z,995.02
2018-09-08T04:36:08.012Z,994.99
2018-09-08T04:37:08.239Z,994.99
2018-09-08T04:38:08.466Z,995.00
2018-09-08T04:39:08.693Z,995.01
2018-09-08T04:40:08.918Z,994.98
2018-09-08T04:41:09.147Z,994.98
2018-09-08T04:42:09.371Z,994.97
2018-09-08T04:43:09.596Z,995.00
2018-09-08T04:44:09.824Z,995.03
2018-09-08T04:45:10.050Z,995.05
2018-09-08T04:46:10.277Z,995.04
2018-09-08T04:47:10.504Z,995.04
2018-09-08T04:48:10.730Z,995.03
2018-09-08T04:49:11.007Z,995.03
2018-09-08T04:50:11.184Z,995.07
2018-09-08T04:51:11.414Z,995.09
2018-09-08T04:52:11.638Z,995.07
2018-09-08T04:53:11.866Z,995.09
2018-09-08T04:54:12.088Z,995.10
2018-09-08T04:55:12.314Z,995.13
2018-09-08T04:56:12.537Z,995.14
2018-09-08T04:57:12.764Z,995.13
2018-09-08T04:58:12.992Z,995.14
2018-09-08T04:59:13.215Z,995.15
2018-09-08T05:00:13.445Z,995.15
2018-09-08T05:01:13.670Z,995.19
2018-09-08T05:02:13.896Z,995.16
2018-09-08T05:03:14.120Z,995.16
2018-09-08T05:04:14.348Z,995.15
2018-09-08T05:05:14.573Z,995.15
2018-09-08T05:06:14.799Z,995.16
2018-09-08T05:07:15.022Z,995.14
2018-09-08T05:08:15.251Z,995.16
2018-09-08T05:09:15.481Z,995.13
2018-09-08T05:10:15.707Z,995.15
2018-09-08T05:11:15.933Z,995.16
2018-09-08T05:12:16.161Z,995.14
2018-09-08T05:13:16.391Z,995.18
2018-09-08T05:14:16.615Z,995.21
2018-09-08T05:15:16.844Z,995.18
2018-09-08T05:16:17.068Z,995.20
2018-09-08T05:17:17.382Z,995.19
2018-09-08T05:18:17.523Z,995.24
2018-09-08T05:19:17.747Z,995.23
2018-09-08T05:20:17.970Z,995.21
2018-09-08T05:21:18.200Z,995.23
2018-09-08T05:22:18.431Z,995.26
2018-09-08T05:23:18.659Z,995.24
2018-09-08T05:24:18.883Z,995.24
2018-09-08T05:25:19.109Z,995.26
2018-09-08T05:26:19.335Z,995.24
2018-09-08T05:27:19.563Z,995.28
2018-09-08T05:28:19.791Z,995.34
2018-09-08T05:29:20.016Z,995.27
2018-09-08T05:30:20.245Z,995.26
2018-09-08T05:31:20.469Z,995.25
2018-09-08T05:32:20.699Z,995.27
2018-09-08T05:33:20.926Z,995.29
2018-09-08T05:34:21.155Z,995.28
2018-09-08T05:35:21.380Z,995.30
2018-09-08T05:36:21.609Z,995.32
2018-09-08T05:37:21.833Z,995.33
2018-09-08T05:38:22.062Z,995.37
2018-09-08T05:39:22.286Z,995.37
2018-09-08T05:40:22.515Z,995.39
2018-09-08T05:41:22.742Z,995.39
2018-09-08T05:42:22.965Z,995.42
2018-09-08T05:43:23.193Z,995.43
2018-09-08T05:44:23.420Z,995.45
2018-09-08T05:45:23.646Z,995.45
2018-09-08T05:46:23.873Z,995.50
2018-09-08T05:47:24.095Z,995.47
2018-09-08T05:48:24.323Z,995.52
2018-09-08T05:49:24.547Z,995.54
2018-09-08T05:50:24.782Z,995.54
2018-09-08T05:51:25.005Z,995.57
2018-09-08T05:52:25.240Z,995.62
2018-09-08T05:53:25.465Z,995.61
2018-09-08T05:54:25.693Z,995.62
2018-09-08T05:55:25.931Z,995.64
2018-09-08T05:56:26.153Z,995.65
2018-09-08T05:57:26.380Z,995.66
2018-09-08T05:58:26.656Z,995.70
2018-09-08T05:59:26.833Z,995.73
2018-09-08T06:00:27.059Z,995.73
2018-09-08T06:01:27.287Z,995.72
2018-09-08T06:02:27.514Z,995.76
2018-09-08T06:03:27.747Z,995.76
2018-09-08T06:04:27.972Z,995.76
2018-09-08T06:05:28.198Z,995.75
2018-09-08T06:06:28.422Z,995.82
2018-09-08T06:07:28.649Z,995.80
2018-09-08T06:08:28.875Z,995.84
2018-09-08T06:09:29.108Z,995.83
2018-09-08T06:10:29.337Z,995.84
2018-09-08T06:11:29.561Z,995.85
2018-09-08T06:12:29.789Z,995.87
2018-09-08T06:13:30.016Z,995.89
2018-09-08T06:14:30.243Z,995.88
2018-09-08T06:15:30.471Z,995.91
2018-09-08T06:16:30.696Z,995.88
2018-09-08T06:17:30.979Z,995.88
2018-09-08T06:18:31.147Z,995.87
2018-09-08T06:19:31.392Z,995.87
2018-09-08T06:20:31.604Z,995.85
2018-09-08T06:21:31.829Z,995.86
2018-09-08T06:22:32.059Z,995.87
2018-09-08T06:23:32.286Z,995.84
2018-09-08T06:24:32.560Z,995.85
2018-09-08T06:25:32.792Z,995.81
2018-09-08T06:26:32.963Z,995.82
2018-09-08T06:27:33.188Z,995.81
2018-09-08T06:28:33.497Z,995.78
2018-09-08T06:29:33.656Z,995.79
2018-09-08T06:30:33.880Z,995.78
2018-09-08T06:31:34.136Z,995.77
2018-09-08T06:32:34.363Z,995.74
2018-09-08T06:33:34.592Z,995.77
2018-09-08T06:34:34.817Z,995.76
2018-09-08T06:35:35.067Z,995.75
2018-09-08T06:36:35.275Z,995.74
2018-09-08T06:37:35.500Z,995.74
2018-09-08T06:38:35.725Z,995.72
2018-09-08T06:39:35.956Z,995.71
2018-09-08T06:40:36.190Z,995.76
2018-09-08T06:41:36.412Z,995.70
2018-09-08T06:42:36.638Z,995.71
2018-09-08T06:43:36.868Z,995.71
2018-09-08T06:44:37.096Z,995.65
2018-09-08T06:45:37.323Z,995.66
2018-09-08T06:46:37.548Z,995.68
2018-09-08T06:47:37.778Z,995.68
2018-09-08T06:48:38.009Z,995.67
2018-09-08T06:49:38.241Z,995.70
2018-09-08T06:50:38.467Z,995.70
2018-09-08T06:51:38.692Z,995.73
2018-09-08T06:52:38.921Z,995.71
2018-09-08T06:53:39.160Z,995.73
2018-09-08T06:54:39.371Z,995.73
2018-09-08T06:55:39.599Z,995.75
2018-09-08T06:56:39.826Z,995.79
2018-09-08T06:57:40.055Z,995.83
2018-09-08T06:58:40.287Z,995.84
2018-09-08T06:59:40.512Z,995.85
2018-09-08T07:00:40.740Z,995.87
2018-09-08T07:01:40.971Z,995.87
2018-09-08T07:02:41.205Z,995.89
2018-09-08T07:03:41.428Z,995.86
2018-09-08T07:04:41.656Z,995.86
2018-09-08T07:05:41.883Z,995.88
2018-09-08T07:06:42.115Z,995.87
2018-09-08T07:07:42.335Z,995.92
2018-09-08T07:08:42.569Z,995.88
2018-09-08T07:09:42.791Z,995.92
2018-09-08T07:10:43.020Z,995.91
2018-09-08T07:11:43.250Z,995.93
2018-09-08T07:12:43.481Z,995.91
2018-09-08T07:13:43.708Z,995.94
2018-09-08T07:14:43.936Z,995.90
2018-09-08T07:15:44.164Z,995.91
2018-09-08T07:16:44.395Z,995.90
2018-09-08T07:17:44.626Z,995.90
2018-09-08T07:18:44.856Z,995.90
2018-09-08T07:19:45.082Z,995.87
2018-09-08T07:20:45.311Z,995.81
2018-09-08T07:21:45.540Z,995.86
2018-09-08T07:22:45.771Z,995.87
2018-09-08T07:23:45.997Z,995.89
2018-09-08T07:24:46.240Z,995.87
2018-09-08T07:25:46.453Z,995.89
2018-09-08T07:26:46.681Z,995.89
2018-09-08T07:27:46.909Z,995.92
2018-09-08T07:28:47.136Z,995.90
2018-09-08T07:29:47.365Z,995.88
2018-09-08T07:30:47.594Z,995.91
2018-09-08T07:31:47.822Z,995.93
2018-09-08T07:32:48.052Z,995.93
2018-09-08T07:33:48.279Z,995.92
2018-09-08T07:34:48.509Z,995.94
2018-09-08T07:35:48.736Z,995.90
2018-09-08T07:36:48.969Z,995.96
2018-09-08T07:37:49.193Z,995.94
2018-09-08T07:38:49.421Z,996.01
2018-09-08T07:39:49.653Z,995.98
2018-09-08T07:40:49.878Z,996.04
2018-09-08T07:41:50.108Z,996.00
2018-09-08T07:42:50.338Z,996.02
2018-09-08T07:43:50.569Z,996.02
2018-09-08T07:44:50.796Z,996.05
2018-09-08T07:45:51.063Z,996.08
2018-09-08T07:46:51.259Z,996.09
2018-09-08T07:47:51.486Z,996.03
2018-09-08T07:48:51.714Z,996.09
2018-09-08T07:49:51.953Z,996.06
2018-09-08T07:50:52.176Z,996.03
2018-09-08T07:51:52.414Z,996.08
2018-09-08T07:52:52.631Z,996.09
2018-09-08T07:53:52.913Z,996.10
2018-09-08T07:54:53.092Z,996.08
2018-09-08T07:55:53.329Z,996.07
2018-09-08T07:56:53.556Z,996.07
2018-09-08T07:57:53.793Z,996.03
2018-09-08T07:58:54.017Z,996.02
2018-09-08T07:59:54.248Z,996.02
2018-09-08T08:00:54.477Z,996.08
2018-09-08T08:01:54.705Z,996.04
2018-09-08T08:02:54.933Z,996.09
2018-09-08T08:03:55.163Z,996.09
2018-09-08T08:04:55.390Z,996.13
2018-09-08T08:05:55.622Z,996.10
2018-09-08T08:06:55.857Z,996.15
2018-09-08T08:07:56.078Z,996.15
2018-09-08T08:08:56.308Z,996.20
2018-09-08T08:09:56.535Z,996.17
2018-09-08T08:10:56.767Z,996.20
2018-09-08T08:11:57.034Z,996.18
2018-09-08T08:12:57.226Z,996.20
2018-09-08T08:13:57.457Z,996.22
2018-09-08T08:14:57.680Z,996.21
2018-09-08T08:15:57.909Z,996.24
2018-09-08T08:16:58.139Z,996.25
2018-09-08T08:17:58.368Z,996.23
2018-09-08T08:18:58.594Z,996.22
2018-09-08T08:19:58.823Z,996.15
2018-09-08T08:20:59.060Z,996.17
2018-09-08T08:21:59.289Z,996.21
2018-09-08T08:22:59.519Z,996.19
2018-09-08T08:23:59.756Z,996.21
2018-09-08T08:24:59.979Z,996.18
2018-09-08T08:26:00.212Z,996.17
2018-09-08T08:27:00.440Z,996.16
2018-09-08T08:28:00.672Z,996.16
2018-09-08T08:29:00.900Z,996.13
2018-09-08T08:30:01.141Z,996.13
2018-09-08T08:31:01.417Z,996.14
2018-09-08T08:32:01.629Z,996.10
2018-09-08T08:33:01.827Z,996.05
2018-09-08T08:34:02.063Z,996.09
2018-09-08T08:35:02.298Z,996.10
2018-09-08T08:36:02.537Z,996.11
2018-09-08T08:37:02.800Z,996.12
2018-09-08T08:38:03.011Z,996.12
2018-09-08T08:39:03.241Z,996.11
2018-09-08T08:40:03.463Z,996.16
2018-09-08T08:41:03.700Z,996.14
2018-09-08T08:42:03.934Z,996.13
2018-09-08T08:43:04.215Z,996.17
2018-09-08T08:44:04.402Z,996.17
2018-09-08T08:45:04.628Z,996.16
2018-09-08T08:46:04.858Z,996.17
2018-09-08T08:47:05.090Z,996.17
2018-09-08T08:48:05.323Z,996.19
2018-09-08T08:49:05.569Z,996.18
2018-09-08T08:50:05.795Z,996.17
2018-09-08T08:51:06.025Z,996.18
2018-09-08T08:52:06.254Z,996.16
2018-09-08T08:53:06.483Z,996.16
2018-09-08T08:54:06.719Z,996.17
2018-09-08T08:55:06.956Z,996.16
2018-09-08T08:56:07.185Z,996.15
2018-09-08T08:57:07.416Z,996.14
2018-09-08T08:58:07.646Z,996.14
2018-09-08T08:59:07.876Z,996.16
2018-09-08T09:00:08.108Z,996.17
2018-09-08T09:01:08.348Z,996.16
2018-09-08T09:02:08.579Z,996.15
2018-09-08T09:03:08.808Z,996.14
2018-09-08T09:04:09.046Z,996.15
2018-09-08T09:05:09.282Z,996.08
2018-09-08T09:06:09.517Z,996.07
2018-09-08T09:07:09.747Z,996.08
2018-09-08T09:08:09.979Z,996.06
2018-09-08T09:09:10.209Z,996.03
2018-09-08T09:10:10.439Z,996.03
2018-09-08T09:11:10.670Z,996.03
2018-09-08T09:12:10.898Z,996.03
2018-09-08T09:13:11.179Z,996.07
2018-09-08T09:14:11.364Z,996.02
2018-09-08T09:15:11.984Z,995.99
2018-09-08T09:16:11.831Z,995.97
2018-09-08T09:17:12.059Z,995.99
2018-09-08T09:18:12.292Z,995.96
2018-09-08T09:19:12.525Z,995.98
2018-09-08T09:20:12.753Z,995.96
2018-09-08T09:21:12.985Z,995.98
2018-09-08T09:22:13.213Z,995.96
2018-09-08T09:23:13.585Z,995.97
2018-09-08T09:24:13.685Z,995.98
2018-09-08T09:25:13.905Z,995.96
2018-09-08T09:26:14.135Z,996.03
2018-09-08T09:27:14.367Z,996.01
2018-09-08T09:28:14.598Z,995.95
2018-09-08T09:29:14.829Z,995.98
2018-09-08T09:30:15.061Z,995.99
2018-09-08T09:31:15.291Z,995.95
2018-09-08T09:32:15.517Z,995.97
2018-09-08T09:33:15.749Z,995.96
2018-09-08T09:34:15.982Z,995.96
2018-09-08T09:35:16.209Z,995.93
2018-09-08T09:36:16.438Z,995.90
2018-09-08T09:37:16.698Z,995.89
2018-09-08T09:38:16.900Z,995.93
2018-09-08T09:39:17.134Z,995.91
2018-09-08T09:40:17.370Z,995.88
2018-09-08T09:41:17.617Z,995.89
2018-09-08T09:42:17.848Z,995.86
2018-09-08T09:43:18.079Z,995.83
2018-09-08T09:44:18.415Z,995.82
2018-09-08T09:45:18.557Z,995.81
2018-09-08T09:46:18.813Z,995.81
2018-09-08T09:47:19.046Z,995.79
2018-09-08T09:48:19.278Z,995.80
2018-09-08T09:49:19.514Z,995.78
2018-09-08T09:50:19.744Z,995.78
2018-09-08T09:51:19.978Z,995.81
2018-09-08T09:52:20.208Z,995.82
2018-09-08T09:53:20.443Z,995.82
2018-09-08T09:54:20.673Z,995.76
2018-09-08T09:55:20.912Z,995.78
2018-09-08T09:56:21.255Z,995.79
2018-09-08T09:57:21.379Z,995.78
2018-09-08T09:58:21.609Z,995.80
2018-09-08T09:59:21.841Z,995.77
2018-09-08T10:00:22.081Z,995.80
2018-09-08T10:01:22.307Z,995.80
2018-09-08T10:02:22.538Z,995.81
2018-09-08T10:03:22.768Z,995.83
2018-09-08T10:04:23.010Z,995.81
2018-09-08T10:05:23.237Z,995.84
2018-09-08T10:06:23.487Z,995.78
2018-09-08T10:07:23.699Z,995.78
2018-09-08T10:08:23.930Z,995.77
2018-09-08T10:09:24.163Z,995.81
2018-09-08T10:10:24.393Z,995.81
2018-09-08T10:11:24.622Z,995.78
2018-09-08T10:12:24.852Z,995.78
2018-09-08T10:13:25.099Z,995.86
2018-09-08T10:14:25.327Z,995.83
2018-09-08T10:15:25.552Z,995.81
2018-09-08T10:16:25.790Z,995.81
2018-09-08T10:17:26.020Z,995.80
2018-09-08T10:18:26.250Z,995.82
2018-09-08T10:19:26.491Z,995.78
2018-09-08T10:20:26.710Z,995.77
2018-09-08T10:21:26.943Z,995.82
2018-09-08T10:22:27.173Z,995.83
2018-09-08T10:23:27.409Z,995.83
2018-09-08T10:24:27.636Z,995.79
2018-09-08T10:25:27.905Z,995.78
2018-09-08T10:26:28.168Z,995.79
2018-09-08T10:27:28.340Z,995.77
2018-09-08T10:28:28.953Z,995.79
2018-09-08T10:29:28.811Z,995.72
2018-09-08T10:30:29.092Z,995.72
2018-09-08T10:31:29.269Z,995.75
2018-09-08T10:32:29.500Z,995.74
2018-09-08T10:33:29.731Z,995.72
2018-09-08T10:34:29.961Z,995.69
2018-09-08T10:35:30.193Z,995.71
2018-09-08T10:36:30.424Z,995.67
2018-09-08T10:37:30.656Z,995.71
2018-09-08T10:38:30.887Z,995.65
2018-09-08T10:39:31.122Z,995.65
2018-09-08T10:40:31.358Z,995.69
2018-09-08T10:41:31.586Z,995.65
2018-09-08T10:42:31.823Z,995.65
2018-09-08T10:43:32.046Z,995.65
2018-09-08T10:44:32.285Z,995.62
2018-09-08T10:45:32.516Z,995.63
2018-09-08T10:46:32.746Z,995.62
2018-09-08T10:47:32.979Z,995.59
2018-09-08T10:48:33.208Z,995.59
2018-09-08T10:49:33.440Z,995.60
2018-09-08T10:50:33.674Z,995.56
2018-09-08T10:51:33.905Z,995.58
2018-09-08T10:52:34.142Z,995.58
2018-09-08T10:53:34.373Z,995.57
2018-09-08T10:54:34.611Z,995.57
2018-09-08T10:55:34.839Z,995.57
2018-09-08T10:56:35.069Z,995.54
2018-09-08T10:57:35.305Z,995.57
2018-09-08T10:58:35.536Z,995.57
2018-09-08T10:59:35.785Z,995.53
2018-09-08T11:00:36.017Z,995.54
2018-09-08T11:01:36.266Z,995.48
2018-09-08T11:02:36.640Z,995.49
2018-09-08T11:03:36.715Z,995.49
2018-09-08T11:04:36.946Z,995.49
2018-09-08T11:05:37.178Z,995.52
2018-09-08T11:06:37.413Z,995.54
2018-09-08T11:07:37.652Z,995.53
2018-09-08T11:08:37.890Z,995.55
2018-09-08T11:09:38.112Z,995.48
2018-09-08T11:10:38.351Z,995.45
2018-09-08T11:11:38.581Z,995.48
2018-09-08T11:12:38.823Z,995.47
2018-09-08T11:13:39.057Z,995.46
2018-09-08T11:14:39.287Z,995.46
2018-09-08T11:15:39.522Z,995.47
2018-09-08T11:16:39.757Z,995.44
2018-09-08T11:17:39.990Z,995.43
2018-09-08T11:18:40.232Z,995.44
2018-09-08T11:19:40.450Z,995.44
2018-09-08T11:20:40.685Z,995.42
2018-09-08T11:21:40.916Z,995.41
2018-09-08T11:22:41.154Z,995.44
2018-09-08T11:23:41.387Z,995.47
2018-09-08T11:24:41.619Z,995.46
2018-09-08T11:25:41.854Z,995.48
2018-09-08T11:26:42.089Z,995.47
2018-09-08T11:27:42.320Z,995.46
2018-09-08T11:28:42.555Z,995.46
2018-09-08T11:29:42.788Z,995.46
2018-09-08T11:30:43.050Z,995.42
2018-09-08T11:31:43.253Z,995.40
2018-09-08T11:32:43.488Z,995.41
2018-09-08T11:33:43.718Z,995.40
2018-09-08T11:34:43.951Z,995.40
2018-09-08T11:35:44.184Z,995.39
2018-09-08T11:36:44.414Z,995.36
2018-09-08T11:37:44.648Z,995.33
2018-09-08T11:38:44.881Z,995.33
2018-09-08T11:39:45.116Z,995.32
2018-09-08T11:40:45.348Z,995.29
2018-09-08T11:41:45.587Z,995.27
2018-09-08T11:42:45.818Z,995.25
2018-09-08T11:43:46.049Z,995.24
2018-09-08T11:44:46.296Z,995.25
2018-09-08T11:45:46.525Z,995.25
2018-09-08T11:46:46.756Z,995.23
2018-09-08T11:47:46.975Z,995.28
2018-09-08T11:48:47.224Z,995.25
2018-09-08T11:49:47.455Z,995.26
2018-09-08T11:50:47.703Z,995.28
2018-09-08T11:51:47.924Z,995.25
2018-09-08T11:52:48.171Z,995.26
2018-09-08T11:53:48.399Z,995.27
2018-09-08T11:54:48.633Z,995.23
2018-09-08T11:55:48.865Z,995.30
2018-09-08T11:56:49.099Z,995.25
2018-09-08T11:57:49.332Z,995.21
2018-09-08T11:58:49.564Z,995.23
2018-09-08T11:59:49.795Z,995.18
2018-09-08T12:00:50.026Z,995.20
2018-09-08T12:01:50.264Z,995.20
2018-09-08T12:02:50.500Z,995.17
2018-09-08T12:03:50.736Z,995.17
2018-09-08T12:04:50.974Z,995.16
2018-09-08T12:05:51.203Z,995.17
2018-09-08T12:06:51.440Z,995.16
2018-09-08T12:07:51.669Z,995.14
2018-09-08T12:08:51.911Z,995.14
2018-09-08T12:09:52.137Z,995.12
2018-09-08T12:10:52.373Z,995.12
2018-09-08T12:11:52.607Z,995.12
2018-09-08T12:12:52.835Z,995.15
2018-09-08T12:13:53.107Z,995.18
2018-09-08T12:14:53.304Z,995.14
2018-09-08T12:15:53.534Z,995.15
2018-09-08T12:16:53.767Z,995.15
2018-09-08T12:17:54.001Z,995.20
2018-09-08T12:18:54.232Z,995.16
2018-09-08T12:19:54.468Z,995.21
2018-09-08T12:20:54.698Z,995.17
2018-09-08T12:21:54.933Z,995.20
2018-09-08T12:22:55.163Z,995.19
2018-09-08T12:23:55.397Z,995.18
2018-09-08T12:24:55.628Z,995.16
2018-09-08T12:25:55.861Z,995.17
2018-09-08T12:26:56.099Z,995.14
2018-09-08T12:27:56.328Z,995.11
2018-09-08T12:28:56.558Z,995.15
2018-09-08T12:29:56.797Z,995.17
2018-09-08T12:30:57.087Z,995.20